sensor_id;sensor_type;location;lat;lon;timestamp;pressure;altitude;pressure_sealevel;temperature;humidity
48555;BME280;34336;48.270;16.716;2022-09-09T00:01:37;75519.00;;;18.16;73.39
48555;BME280;34336;48.270;16.716;2022-09-09T00:04:15;75503.59;;;18.16;73.59
48555;BME280;34336;48.270;16.716;2022-09-09T00:09:22;75515.13;;;18.16;73.86
48555;BME280;34336;48.270;16.716;2022-09-09T00:11:54;75513.22;;;18.16;73.65
48555;BME280;34336;48.270;16.716;2022-09-09T00:17:06;75520.91;;;18.16;73.25
48555;BME280;34336;48.270;16.716;2022-09-09T00:19:48;75526.69;;;18.16;73.54
48555;BME280;34336;48.270;16.716;2022-09-09T00:22:25;75530.56;;;18.16;73.71
48555;BME280;34336;48.270;16.716;2022-09-09T00:24:55;75530.56;;;18.16;73.83
48555;BME280;34336;48.270;16.716;2022-09-09T00:27:36;75515.13;;;18.16;73.15
48555;BME280;34336;48.270;16.716;2022-09-09T00:30:15;75524.78;;;18.16;73.51
48555;BME280;34336;48.270;16.716;2022-09-09T00:32:46;75530.56;;;18.16;73.62
48555;BME280;34336;48.270;16.716;2022-09-09T00:35:44;75530.56;;;18.16;73.81
48555;BME280;34336;48.270;16.716;2022-09-09T00:44:36;75555.59;;;18.16;74.78
48555;BME280;34336;48.270;16.716;2022-09-09T00:47:07;75574.84;;;18.16;75.14
48555;BME280;34336;48.270;16.716;2022-09-09T00:49:59;75588.34;;;18.16;75.46
48555;BME280;34336;48.270;16.716;2022-09-09T00:58:02;75626.88;;;18.16;76.09
48555;BME280;34336;48.270;16.716;2022-09-09T01:06:12;75663.47;;;18.16;77.19
48555;BME280;34336;48.270;16.716;2022-09-09T01:11:52;75700.09;;;18.16;76.79
48555;BME280;34336;48.270;16.716;2022-09-09T01:14:29;75705.84;;;18.16;77.04
48555;BME280;34336;48.270;16.716;2022-09-09T01:17:02;75713.56;;;18.16;77.49
48555;BME280;34336;48.270;16.716;2022-09-09T01:28:20;75744.38;;;18.16;78.98
48555;BME280;34336;48.270;16.716;2022-09-09T01:30:51;75759.81;;;18.16;78.74
48555;BME280;34336;48.270;16.716;2022-09-09T01:33:22;75765.59;;;18.16;78.84
48555;BME280;34336;48.270;16.716;2022-09-09T01:35:53;75767.50;;;18.16;78.96
48555;BME280;34336;48.270;16.716;2022-09-09T01:38:26;75773.28;;;18.16;79.63
48555;BME280;34336;48.270;16.716;2022-09-09T01:40:55;75781.00;;;18.16;79.50
48555;BME280;34336;48.270;16.716;2022-09-09T01:43:29;75781.00;;;18.16;79.36
48555;BME280;34336;48.270;16.716;2022-09-09T01:46:00;75782.91;;;18.16;80.01
48555;BME280;34336;48.270;16.716;2022-09-09T01:48:30;75804.13;;;18.16;79.55
48555;BME280;34336;48.270;16.716;2022-09-09T01:51:02;75811.81;;;18.16;79.41
48555;BME280;34336;48.270;16.716;2022-09-09T01:53:29;75815.69;;;18.16;79.59
48555;BME280;34336;48.270;16.716;2022-09-09T01:56:04;75809.91;;;18.16;79.08
48555;BME280;34336;48.270;16.716;2022-09-09T02:01:42;75819.53;;;18.16;79.66
48555;BME280;34336;48.270;16.716;2022-09-09T02:10:22;75852.28;;;18.16;80.46
48555;BME280;34336;48.270;16.716;2022-09-09T02:13:14;75850.34;;;18.16;81.15
48555;BME280;34336;48.270;16.716;2022-09-09T02:15:48;75850.34;;;18.16;81.41
48555;BME280;34336;48.270;16.716;2022-09-09T02:18:25;75852.28;;;18.16;81.57
48555;BME280;34336;48.270;16.716;2022-09-09T02:20:54;75854.22;;;18.16;81.45
48555;BME280;34336;48.270;16.716;2022-09-09T02:23:22;75858.06;;;18.16;81.23
48555;BME280;34336;48.270;16.716;2022-09-09T02:25:54;75854.22;;;18.16;81.02
48555;BME280;34336;48.270;16.716;2022-09-09T02:28:26;75856.13;;;18.16;81.85
48555;BME280;34336;48.270;16.716;2022-09-09T02:30:55;75856.13;;;18.16;81.79
48555;BME280;34336;48.270;16.716;2022-09-09T02:33:33;75858.06;;;18.16;81.65
48555;BME280;34336;48.270;16.716;2022-09-09T02:36:03;75865.75;;;18.16;81.88
48555;BME280;34336;48.270;16.716;2022-09-09T02:38:38;75869.63;;;18.16;81.91
48555;BME280;34336;48.270;16.716;2022-09-09T02:41:12;75879.25;;;18.16;81.75
48555;BME280;34336;48.270;16.716;2022-09-09T02:43:39;75888.88;;;18.16;81.67
48555;BME280;34336;48.270;16.716;2022-09-09T02:46:43;75890.81;;;18.16;81.56
48555;BME280;34336;48.270;16.716;2022-09-09T02:52:30;75894.66;;;18.16;81.83
48555;BME280;34336;48.270;16.716;2022-09-09T02:55:06;75900.44;;;18.16;81.57
48555;BME280;34336;48.270;16.716;2022-09-09T02:57:34;75908.16;;;18.16;81.90
48555;BME280;34336;48.270;16.716;2022-09-09T03:00:04;75908.16;;;18.16;81.97
48555;BME280;34336;48.270;16.716;2022-09-09T03:02:33;75902.38;;;18.16;82.17
48555;BME280;34336;48.270;16.716;2022-09-09T03:05:05;75908.16;;;18.16;82.22
48555;BME280;34336;48.270;16.716;2022-09-09T03:07:32;75908.16;;;18.16;82.00
48555;BME280;34336;48.270;16.716;2022-09-09T03:10:00;75892.75;;;18.16;82.49
48555;BME280;34336;48.270;16.716;2022-09-09T03:12:27;75896.59;;;18.16;82.79
48555;BME280;34336;48.270;16.716;2022-09-09T03:14:54;75894.66;;;18.16;82.92
48555;BME280;34336;48.270;16.716;2022-09-09T03:17:22;75892.75;;;18.16;83.02
48555;BME280;34336;48.270;16.716;2022-09-09T03:19:53;75896.59;;;18.16;83.10
48555;BME280;34336;48.270;16.716;2022-09-09T03:22:21;75888.88;;;18.16;83.31
48555;BME280;34336;48.270;16.716;2022-09-09T03:24:48;75883.09;;;18.16;83.26
48555;BME280;34336;48.270;16.716;2022-09-09T03:27:15;75881.19;;;18.16;83.63
48555;BME280;34336;48.270;16.716;2022-09-09T03:29:43;75885.03;;;18.16;83.41
48555;BME280;34336;48.270;16.716;2022-09-09T03:32:15;75894.66;;;18.16;83.41
48555;BME280;34336;48.270;16.716;2022-09-09T03:34:44;75904.28;;;18.16;83.16
48555;BME280;34336;48.270;16.716;2022-09-09T03:37:12;75900.44;;;18.16;82.97
48555;BME280;34336;48.270;16.716;2022-09-09T03:39:39;75900.44;;;18.16;82.85
48555;BME280;34336;48.270;16.716;2022-09-09T03:42:08;75908.16;;;18.16;82.94
48555;BME280;34336;48.270;16.716;2022-09-09T03:44:34;75917.78;;;18.16;82.68
48555;BME280;34336;48.270;16.716;2022-09-09T03:47:01;75919.72;;;18.16;82.45
48555;BME280;34336;48.270;16.716;2022-09-09T03:49:28;75915.84;;;18.16;82.60
48555;BME280;34336;48.270;16.716;2022-09-09T03:51:56;75904.28;;;18.16;82.92
48555;BME280;34336;48.270;16.716;2022-09-09T03:54:27;75910.06;;;18.16;82.97
48555;BME280;34336;48.270;16.716;2022-09-09T03:56:55;75919.72;;;18.16;82.36
48555;BME280;34336;48.270;16.716;2022-09-09T03:59:22;75938.97;;;18.16;82.21
48555;BME280;34336;48.270;16.716;2022-09-09T04:01:49;75931.28;;;18.16;82.21
48555;BME280;34336;48.270;16.716;2022-09-09T04:04:17;75931.28;;;18.16;82.58
48555;BME280;34336;48.270;16.716;2022-09-09T04:06:43;75935.13;;;18.16;82.31
48555;BME280;34336;48.270;16.716;2022-09-09T04:09:11;75931.28;;;18.16;82.27
48555;BME280;34336;48.270;16.716;2022-09-09T04:11:38;75929.34;;;18.16;82.38
48555;BME280;34336;48.270;16.716;2022-09-09T04:14:05;75927.41;;;18.16;82.60
48555;BME280;34336;48.270;16.716;2022-09-09T04:16:33;75927.41;;;18.16;82.31
48555;BME280;34336;48.270;16.716;2022-09-09T04:19:02;75931.28;;;18.16;82.10
48555;BME280;34336;48.270;16.716;2022-09-09T04:21:31;75931.28;;;18.16;81.90
48555;BME280;34336;48.270;16.716;2022-09-09T04:23:59;75938.97;;;18.16;82.31
48555;BME280;34336;48.270;16.716;2022-09-09T04:26:26;75938.97;;;18.16;81.85
48555;BME280;34336;48.270;16.716;2022-09-09T04:28:53;75942.84;;;18.16;81.88
48555;BME280;34336;48.270;16.716;2022-09-09T04:31:22;75938.97;;;18.16;82.15
48555;BME280;34336;48.270;16.716;2022-09-09T04:33:53;75938.97;;;18.16;82.16
48555;BME280;34336;48.270;16.716;2022-09-09T04:36:21;75933.19;;;18.16;82.12
48555;BME280;34336;48.270;16.716;2022-09-09T04:38:50;75923.56;;;18.16;82.32
48555;BME280;34336;48.270;16.716;2022-09-09T04:41:17;75927.41;;;18.16;82.13
48555;BME280;34336;48.270;16.716;2022-09-09T04:43:49;75927.41;;;18.16;81.95
48555;BME280;34336;48.270;16.716;2022-09-09T04:46:16;75919.72;;;18.16;81.92
48555;BME280;34336;48.270;16.716;2022-09-09T04:48:48;75913.94;;;18.16;82.12
48555;BME280;34336;48.270;16.716;2022-09-09T04:51:16;75908.16;;;18.16;81.72
48555;BME280;34336;48.270;16.716;2022-09-09T04:53:45;75875.41;;;18.16;80.83
48555;BME280;34336;48.270;16.716;2022-09-09T04:56:17;75792.56;;;18.16;78.99
48555;BME280;34336;48.270;16.716;2022-09-09T04:58:53;75755.94;;;18.16;76.20
48555;BME280;34336;48.270;16.716;2022-09-09T05:01:23;75765.59;;;18.16;74.86
48555;BME280;34336;48.270;16.716;2022-09-09T05:03:56;75788.69;;;18.16;75.15
48555;BME280;34336;48.270;16.716;2022-09-09T05:06:23;75796.41;;;18.16;75.08
48555;BME280;34336;48.270;16.716;2022-09-09T05:08:57;75794.47;;;18.16;74.05
48555;BME280;34336;48.270;16.716;2022-09-09T05:11:30;75759.81;;;18.16;74.49
48555;BME280;34336;48.270;16.716;2022-09-09T05:14:04;75626.88;;;18.16;72.99
48555;BME280;34336;48.270;16.716;2022-09-09T05:16:31;75457.34;;;18.16;66.67
48555;BME280;34336;48.270;16.716;2022-09-09T05:18:58;75257.00;;;18.16;60.20
48555;BME280;34336;48.270;16.716;2022-09-09T05:21:33;75079.78;;;18.16;55.96
48555;BME280;34336;48.270;16.716;2022-09-09T05:24:01;75072.09;;;18.16;54.91
48555;BME280;34336;48.270;16.716;2022-09-09T05:26:27;75056.69;;;18.16;55.05
48555;BME280;34336;48.270;16.716;2022-09-09T05:28:56;75056.69;;;18.16;54.69
48555;BME280;34336;48.270;16.716;2022-09-09T05:31:25;75045.13;;;18.16;53.92
48555;BME280;34336;48.270;16.716;2022-09-09T05:33:54;75137.56;;;18.16;56.11
48555;BME280;34336;48.270;16.716;2022-09-09T05:36:22;75087.50;;;18.16;55.75
48555;BME280;34336;48.270;16.716;2022-09-09T05:38:53;74910.28;;;18.16;51.59
48555;BME280;34336;48.270;16.716;2022-09-09T05:41:21;74852.50;;;18.16;50.39
48555;BME280;34336;48.270;16.716;2022-09-09T05:43:52;74862.13;;;18.16;50.77
48555;BME280;34336;48.270;16.716;2022-09-09T05:46:21;74852.50;;;18.16;49.83
48555;BME280;34336;48.270;16.716;2022-09-09T05:48:51;74883.31;;;18.16;50.21
48555;BME280;34336;48.270;16.716;2022-09-09T05:51:23;74839.03;;;18.16;50.42
48555;BME280;34336;48.270;16.716;2022-09-09T05:53:51;74814.00;;;18.16;50.70
48555;BME280;34336;48.270;16.716;2022-09-09T05:56:23;74833.25;;;18.16;50.87
48555;BME280;34336;48.270;16.716;2022-09-09T05:58:53;74918.00;;;18.16;52.54
48555;BME280;34336;48.270;16.716;2022-09-09T06:01:26;75004.66;;;18.16;54.65
48555;BME280;34336;48.270;16.716;2022-09-09T06:03:55;75083.66;;;18.16;57.34
48555;BME280;34336;48.270;16.716;2022-09-09T06:06:30;74975.78;;;18.16;55.29
48555;BME280;34336;48.270;16.716;2022-09-09T06:08:58;74979.63;;;18.16;55.03
48555;BME280;34336;48.270;16.716;2022-09-09T06:11:31;74995.03;;;18.16;55.21
48555;BME280;34336;48.270;16.716;2022-09-09T06:13:59;74991.19;;;18.16;53.89
48555;BME280;34336;48.270;16.716;2022-09-09T06:16:29;74989.25;;;18.16;54.69
48555;BME280;34336;48.270;16.716;2022-09-09T06:18:57;75178.03;;;18.16;60.34
48555;BME280;34336;48.270;16.716;2022-09-09T06:21:32;75116.38;;;18.16;59.96
48555;BME280;34336;48.270;16.716;2022-09-09T06:24:01;75027.78;;;18.16;57.81
48555;BME280;34336;48.270;16.716;2022-09-09T06:26:38;74866.00;;;18.16;54.84
48555;BME280;34336;48.270;16.716;2022-09-09T06:29:11;74783.16;;;18.16;52.62
48555;BME280;34336;48.270;16.716;2022-09-09T06:31:40;74763.91;;;18.16;51.09
48555;BME280;34336;48.270;16.716;2022-09-09T06:34:14;74738.88;;;18.16;51.27
48555;BME280;34336;48.270;16.716;2022-09-09T06:36:45;74586.72;;;18.16;48.27
48555;BME280;34336;48.270;16.716;2022-09-09T06:39:12;74398.00;;;18.16;45.36
48555;BME280;34336;48.270;16.716;2022-09-09T06:41:42;74426.88;;;18.16;45.69
48555;BME280;34336;48.270;16.716;2022-09-09T06:44:29;74521.25;;;18.16;48.71
48555;BME280;34336;48.270;16.716;2022-09-09T06:47:02;74453.84;;;18.16;46.22
48555;BME280;34336;48.270;16.716;2022-09-09T06:49:30;74521.25;;;18.16;48.27
48555;BME280;34336;48.270;16.716;2022-09-09T06:51:57;74457.69;;;18.16;47.45
48555;BME280;34336;48.270;16.716;2022-09-09T06:54:24;74475.03;;;18.16;48.15
48555;BME280;34336;48.270;16.716;2022-09-09T06:56:52;74555.91;;;18.16;47.80
48555;BME280;34336;48.270;16.716;2022-09-09T06:59:22;74438.44;;;18.16;44.36
48555;BME280;34336;48.270;16.716;2022-09-09T07:01:52;74297.84;;;18.16;42.09
48555;BME280;34336;48.270;16.716;2022-09-09T07:04:23;74436.50;;;18.16;44.55
48555;BME280;34336;48.270;16.716;2022-09-09T07:06:49;74203.50;;;18.16;40.98
48555;BME280;34336;48.270;16.716;2022-09-09T07:09:23;74448.06;;;18.16;45.57
48555;BME280;34336;48.270;16.716;2022-09-09T07:11:52;74438.44;;;18.16;46.18
48555;BME280;34336;48.270;16.716;2022-09-09T07:14:21;74517.38;;;18.16;46.13
48555;BME280;34336;48.270;16.716;2022-09-09T07:16:58;74517.38;;;18.16;47.57
48555;BME280;34336;48.270;16.716;2022-09-09T07:19:27;74571.31;;;18.16;48.50
48555;BME280;34336;48.270;16.716;2022-09-09T07:21:55;74347.91;;;18.16;43.99
48555;BME280;34336;48.270;16.716;2022-09-09T07:24:23;74386.44;;;18.16;44.12
48555;BME280;34336;48.270;16.716;2022-09-09T07:26:51;74424.94;;;18.16;44.78
48555;BME280;34336;48.270;16.716;2022-09-09T07:29:19;74136.09;;;18.16;40.19
48555;BME280;34336;48.270;16.716;2022-09-09T07:31:48;74207.34;;;18.16;42.66
48555;BME280;34336;48.270;16.716;2022-09-09T07:34:21;74228.53;;;18.16;42.33
48555;BME280;34336;48.270;16.716;2022-09-09T07:36:48;74240.06;;;18.16;42.63
48555;BME280;34336;48.270;16.716;2022-09-09T07:39:16;74365.25;;;18.16;45.35
48555;BME280;34336;48.270;16.716;2022-09-09T07:41:54;74365.25;;;18.16;43.35
48555;BME280;34336;48.270;16.716;2022-09-09T07:44:23;74484.66;;;18.16;47.74
48555;BME280;34336;48.270;16.716;2022-09-09T07:47:02;74216.97;;;18.16;40.89
48555;BME280;34336;48.270;16.716;2022-09-09T07:49:35;74282.44;;;18.16;42.60
48555;BME280;34336;48.270;16.716;2022-09-09T07:52:03;74170.75;;;18.16;41.09
48555;BME280;34336;48.270;16.716;2022-09-09T07:54:31;74280.53;;;18.16;41.48
48555;BME280;34336;48.270;16.716;2022-09-09T07:57:00;74278.59;;;18.16;41.76
48555;BME280;34336;48.270;16.716;2022-09-09T07:59:29;74465.41;;;18.16;44.48
48555;BME280;34336;48.270;16.716;2022-09-09T08:01:57;74413.41;;;18.16;44.65
48555;BME280;34336;48.270;16.716;2022-09-09T08:04:28;74282.44;;;18.16;42.77
48555;BME280;34336;48.270;16.716;2022-09-09T08:06:59;74130.31;;;18.16;40.71
48555;BME280;34336;48.270;16.716;2022-09-09T08:09:30;74012.84;;;18.16;39.18
48555;BME280;34336;48.270;16.716;2022-09-09T08:12:25;74232.38;;;18.16;43.41
48555;BME280;34336;48.270;16.716;2022-09-09T08:14:51;74055.22;;;18.16;40.76
48555;BME280;34336;48.270;16.716;2022-09-09T08:17:23;74120.69;;;18.16;40.13
48555;BME280;34336;48.270;16.716;2022-09-09T08:19:50;74234.31;;;18.16;41.23
48555;BME280;34336;48.270;16.716;2022-09-09T08:22:22;74424.94;;;18.16;42.93
48555;BME280;34336;48.270;16.716;2022-09-09T08:24:49;74465.41;;;18.16;44.64
48555;BME280;34336;48.270;16.716;2022-09-09T08:27:16;74536.66;;;18.16;46.09
48555;BME280;34336;48.270;16.716;2022-09-09T08:29:43;74536.66;;;18.16;44.68
48555;BME280;34336;48.270;16.716;2022-09-09T08:32:11;74532.81;;;18.16;45.57
48555;BME280;34336;48.270;16.716;2022-09-09T08:34:38;74617.53;;;18.16;47.62
48555;BME280;34336;48.270;16.716;2022-09-09T08:37:11;74609.84;;;18.16;47.76
48555;BME280;34336;48.270;16.716;2022-09-09T08:39:39;74644.50;;;18.16;48.20
48555;BME280;34336;48.270;16.716;2022-09-09T08:42:25;74656.06;;;18.16;49.22
48555;BME280;34336;48.270;16.716;2022-09-09T08:45:04;74652.22;;;18.16;46.74
48555;BME280;34336;48.270;16.716;2022-09-09T08:53:30;74582.88;;;18.16;47.94
48555;BME280;34336;48.270;16.716;2022-09-09T08:56:04;74502.00;;;18.16;45.16
48555;BME280;34336;48.270;16.716;2022-09-09T08:58:47;74436.50;;;18.16;43.41
48555;BME280;34336;48.270;16.716;2022-09-09T09:01:41;74424.94;;;18.16;44.42
48555;BME280;34336;48.270;16.716;2022-09-09T09:10:21;74436.50;;;18.16;44.85
48555;BME280;34336;48.270;16.716;2022-09-09T09:16:28;74417.25;;;18.16;44.38
48555;BME280;34336;48.270;16.716;2022-09-09T09:19:00;74340.22;;;18.16;42.54
48555;BME280;34336;48.270;16.716;2022-09-09T09:21:38;74359.47;;;18.16;45.33
48555;BME280;34336;48.270;16.716;2022-09-09T09:27:10;74313.25;;;18.16;44.20
48555;BME280;34336;48.270;16.716;2022-09-09T09:29:42;74436.50;;;18.16;45.09
48555;BME280;34336;48.270;16.716;2022-09-09T09:32:33;74482.72;;;18.16;45.75
48555;BME280;34336;48.270;16.716;2022-09-09T09:35:10;74398.00;;;18.16;44.27
48555;BME280;34336;48.270;16.716;2022-09-09T09:37:41;74315.19;;;18.16;46.26
48555;BME280;34336;48.270;16.716;2022-09-09T09:40:33;74255.47;;;18.16;43.73
48555;BME280;34336;48.270;16.716;2022-09-09T09:43:01;74317.09;;;18.16;43.31
48555;BME280;34336;48.270;16.716;2022-09-09T09:45:34;74288.22;;;18.16;43.20
48555;BME280;34336;48.270;16.716;2022-09-09T09:48:05;74278.59;;;18.16;42.03
48555;BME280;34336;48.270;16.716;2022-09-09T09:50:47;74436.50;;;18.16;43.74
48555;BME280;34336;48.270;16.716;2022-09-09T09:53:27;74365.25;;;18.16;42.65
48555;BME280;34336;48.270;16.716;2022-09-09T09:56:00;74361.41;;;18.16;43.73
48555;BME280;34336;48.270;16.716;2022-09-09T09:58:31;74430.72;;;18.16;45.76
48555;BME280;34336;48.270;16.716;2022-09-09T10:01:01;74405.69;;;18.16;44.41
48555;BME280;34336;48.270;16.716;2022-09-09T10:03:31;74405.69;;;18.16;48.78
48555;BME280;34336;48.270;16.716;2022-09-09T10:06:00;74351.78;;;18.16;42.88
48555;BME280;34336;48.270;16.716;2022-09-09T10:08:27;74367.19;;;18.16;43.51
48555;BME280;34336;48.270;16.716;2022-09-09T10:17:18;74394.13;;;18.16;42.66
48555;BME280;34336;48.270;16.716;2022-09-09T10:19:42;74405.69;;;18.16;43.85
48555;BME280;34336;48.270;16.716;2022-09-09T10:32:46;74324.81;;;18.16;42.40
48555;BME280;34336;48.270;16.716;2022-09-09T10:35:50;74322.88;;;18.16;43.58
48555;BME280;34336;48.270;16.716;2022-09-09T10:43:40;74384.50;;;18.16;44.03
48555;BME280;34336;48.270;16.716;2022-09-09T10:49:00;74347.91;;;18.16;42.12
48555;BME280;34336;48.270;16.716;2022-09-09T10:51:33;74336.38;;;18.16;42.52
48555;BME280;34336;48.270;16.716;2022-09-09T10:54:43;74334.44;;;18.16;42.44
48555;BME280;34336;48.270;16.716;2022-09-09T10:57:22;74353.69;;;18.16;42.17
48555;BME280;34336;48.270;16.716;2022-09-09T10:59:55;74274.75;;;18.16;43.38
48555;BME280;34336;48.270;16.716;2022-09-09T11:02:29;74290.16;;;18.16;44.04
48555;BME280;34336;48.270;16.716;2022-09-09T11:05:17;74253.56;;;18.16;39.02
48555;BME280;34336;48.270;16.716;2022-09-09T11:08:16;74278.59;;;18.16;40.79
48555;BME280;34336;48.270;16.716;2022-09-09T11:11:04;74182.31;;;18.16;39.65
48555;BME280;34336;48.270;16.716;2022-09-09T11:13:42;74220.81;;;18.16;38.97
48555;BME280;34336;48.270;16.716;2022-09-09T11:18:47;74224.69;;;18.16;40.79
48555;BME280;34336;48.270;16.716;2022-09-09T11:21:23;74224.69;;;18.16;41.40
48555;BME280;34336;48.270;16.716;2022-09-09T11:23:57;74309.41;;;18.16;42.53
48555;BME280;34336;48.270;16.716;2022-09-09T11:26:38;74313.25;;;18.16;42.77
48555;BME280;34336;48.270;16.716;2022-09-09T11:38:40;74159.19;;;18.16;40.90
48555;BME280;34336;48.270;16.716;2022-09-09T11:40:38;74093.72;;;18.16;37.79
48555;BME280;34336;48.270;16.716;2022-09-09T11:43:14;74203.50;;;18.16;39.90
48555;BME280;34336;48.270;16.716;2022-09-09T11:45:43;74315.19;;;18.16;41.49
48555;BME280;34336;48.270;16.716;2022-09-09T11:48:40;74294.00;;;18.16;40.87
48555;BME280;34336;48.270;16.716;2022-09-09T11:56:26;74301.69;;;18.16;40.08
48555;BME280;34336;48.270;16.716;2022-09-09T11:59:20;74295.94;;;18.16;43.20
48555;BME280;34336;48.270;16.716;2022-09-09T12:01:55;74328.66;;;18.16;42.73
48555;BME280;34336;48.270;16.716;2022-09-09T12:06:53;74369.09;;;18.16;40.65
48555;BME280;34336;48.270;16.716;2022-09-09T12:09:27;74292.06;;;18.16;39.10
48555;BME280;34336;48.270;16.716;2022-09-09T12:12:07;74282.44;;;18.16;38.29
48555;BME280;34336;48.270;16.716;2022-09-09T12:15:19;74213.13;;;18.16;37.66
48555;BME280;34336;48.270;16.716;2022-09-09T12:17:28;74191.94;;;18.16;37.54
48555;BME280;34336;48.270;16.716;2022-09-09T12:28:20;74228.53;;;18.16;40.44
48555;BME280;34336;48.270;16.716;2022-09-09T12:33:34;74147.66;;;18.16;37.28
48555;BME280;34336;48.270;16.716;2022-09-09T12:36:03;74209.25;;;18.16;39.63
48555;BME280;34336;48.270;16.716;2022-09-09T12:40:58;74191.94;;;18.16;37.10
48555;BME280;34336;48.270;16.716;2022-09-09T12:43:26;74213.13;;;18.16;38.71
48555;BME280;34336;48.270;16.716;2022-09-09T12:45:57;74268.97;;;18.16;39.84
48555;BME280;34336;48.270;16.716;2022-09-09T12:48:39;74255.47;;;18.16;39.67
48555;BME280;34336;48.270;16.716;2022-09-09T12:51:21;74292.06;;;18.16;38.37
48555;BME280;34336;48.270;16.716;2022-09-09T12:53:51;74261.25;;;18.16;39.07
48555;BME280;34336;48.270;16.716;2022-09-09T12:56:23;74232.38;;;18.16;37.17
48555;BME280;34336;48.270;16.716;2022-09-09T12:58:55;74232.38;;;18.16;39.00
48555;BME280;34336;48.270;16.716;2022-09-09T13:01:30;74193.88;;;18.16;35.38
48555;BME280;34336;48.270;16.716;2022-09-09T13:03:57;74195.78;;;18.16;37.29
48555;BME280;34336;48.270;16.716;2022-09-09T13:06:26;74182.31;;;18.16;37.01
48555;BME280;34336;48.270;16.716;2022-09-09T13:08:57;74174.59;;;18.16;36.88
48555;BME280;34336;48.270;16.716;2022-09-09T13:11:35;74178.47;;;18.16;36.88
48555;BME280;34336;48.270;16.716;2022-09-09T13:14:02;74166.91;;;18.16;35.25
48555;BME280;34336;48.270;16.716;2022-09-09T13:16:31;74166.91;;;18.16;35.33
48555;BME280;34336;48.270;16.716;2022-09-09T13:19:08;74207.34;;;18.16;35.48
48555;BME280;34336;48.270;16.716;2022-09-09T13:21:37;74199.63;;;18.16;34.86
48555;BME280;34336;48.270;16.716;2022-09-09T13:24:07;74218.91;;;18.16;36.73
48555;BME280;34336;48.270;16.716;2022-09-09T13:27:03;74184.22;;;18.16;35.14
48555;BME280;34336;48.270;16.716;2022-09-09T13:29:31;74186.16;;;18.16;35.25
48555;BME280;34336;48.270;16.716;2022-09-09T13:32:17;74216.97;;;18.16;37.09
48555;BME280;34336;48.270;16.716;2022-09-09T13:34:58;74201.56;;;18.16;35.46
48555;BME280;34336;48.270;16.716;2022-09-09T13:37:38;74201.56;;;18.16;35.91
48555;BME280;34336;48.270;16.716;2022-09-09T13:40:16;74228.53;;;18.16;37.55
48555;BME280;34336;48.270;16.716;2022-09-09T13:42:44;74261.25;;;18.16;38.33
48555;BME280;34336;48.270;16.716;2022-09-09T13:45:18;74270.88;;;18.16;37.54
48555;BME280;34336;48.270;16.716;2022-09-09T13:47:49;74247.78;;;18.16;37.69
48555;BME280;34336;48.270;16.716;2022-09-09T13:50:25;74284.38;;;18.16;37.39
48555;BME280;34336;48.270;16.716;2022-09-09T13:52:57;74284.38;;;18.16;38.63
48555;BME280;34336;48.270;16.716;2022-09-09T13:55:26;74263.19;;;18.16;37.17
48555;BME280;34336;48.270;16.716;2022-09-09T13:57:58;74290.16;;;18.16;38.58
48555;BME280;34336;48.270;16.716;2022-09-09T14:00:29;74326.75;;;18.16;39.46
48555;BME280;34336;48.270;16.716;2022-09-09T14:02:57;74340.22;;;18.16;38.48
48555;BME280;34336;48.270;16.716;2022-09-09T14:05:24;74384.50;;;18.16;42.63
48555;BME280;34336;48.270;16.716;2022-09-09T14:07:51;74371.03;;;18.16;41.07
48555;BME280;34336;48.270;16.716;2022-09-09T14:10:19;74390.28;;;18.16;40.37
48555;BME280;34336;48.270;16.716;2022-09-09T14:12:46;74390.28;;;18.16;39.55
48555;BME280;34336;48.270;16.716;2022-09-09T14:15:13;74394.13;;;18.16;39.56
48555;BME280;34336;48.270;16.716;2022-09-09T14:17:41;74380.66;;;18.16;40.83
48555;BME280;34336;48.270;16.716;2022-09-09T14:20:09;74388.38;;;18.16;41.05
48555;BME280;34336;48.270;16.716;2022-09-09T14:22:38;74390.28;;;18.16;40.87
48555;BME280;34336;48.270;16.716;2022-09-09T14:25:06;74398.00;;;18.16;41.21
48555;BME280;34336;48.270;16.716;2022-09-09T14:27:33;74399.91;;;18.16;41.46
48555;BME280;34336;48.270;16.716;2022-09-09T14:30:00;74403.78;;;18.16;41.49
48555;BME280;34336;48.270;16.716;2022-09-09T14:32:27;74415.31;;;18.16;42.18
48555;BME280;34336;48.270;16.716;2022-09-09T14:34:54;74403.78;;;18.16;41.45
48555;BME280;34336;48.270;16.716;2022-09-09T14:37:21;74401.84;;;18.16;40.69
48555;BME280;34336;48.270;16.716;2022-09-09T14:39:48;74415.31;;;18.16;41.35
48555;BME280;34336;48.270;16.716;2022-09-09T14:42:17;74417.25;;;18.16;41.43
48555;BME280;34336;48.270;16.716;2022-09-09T14:44:45;74411.47;;;18.16;41.79
48555;BME280;34336;48.270;16.716;2022-09-09T14:47:12;74403.78;;;18.16;41.57
48555;BME280;34336;48.270;16.716;2022-09-09T14:49:38;74401.84;;;18.16;41.52
48555;BME280;34336;48.270;16.716;2022-09-09T14:52:10;74399.91;;;18.16;41.70
48555;BME280;34336;48.270;16.716;2022-09-09T14:54:37;74403.78;;;18.16;41.00
48555;BME280;34336;48.270;16.716;2022-09-09T14:57:04;74405.69;;;18.16;40.48
48555;BME280;34336;48.270;16.716;2022-09-09T14:59:31;74411.47;;;18.16;41.59
48555;BME280;34336;48.270;16.716;2022-09-09T15:01:58;74415.31;;;18.16;42.32
48555;BME280;34336;48.270;16.716;2022-09-09T15:04:27;74413.41;;;18.16;41.37
48555;BME280;34336;48.270;16.716;2022-09-09T15:06:54;74423.03;;;18.16;42.59
48555;BME280;34336;48.270;16.716;2022-09-09T15:09:21;74417.25;;;18.16;41.87
48555;BME280;34336;48.270;16.716;2022-09-09T15:11:48;74428.81;;;18.16;42.30
48555;BME280;34336;48.270;16.716;2022-09-09T15:14:15;74428.81;;;18.16;42.82
48555;BME280;34336;48.270;16.716;2022-09-09T15:16:45;74428.81;;;18.16;42.68
48555;BME280;34336;48.270;16.716;2022-09-09T15:19:12;74440.34;;;18.16;41.80